Time;durP1;ratioP1;P1;durP2;ratioP2;P2;SDS_P1;SDS_P2;PMS_P1;PMS_P2;Temp;Humidity;BMP_temperature;BMP_pressure;BME280_temperature;BME280_humidity;BME280_pressure;Samples;Min_cycle;Max_cycle;Signal;HPM_P1;HPM_P2
2022/02/27 00:00:16;;;;;;;5.73;4.50;;;;;;;;;;5037967;28;20521;-70
2022/02/27 00:02:44;;;;;;;7.53;4.73;;;;;;;;;;5038017;28;20529;-70
2022/02/27 00:05:13;;;;;;;7.93;4.33;;;;;;;;;;5037692;28;20466;-70
2022/02/27 00:07:41;;;;;;;7.10;5.03;;;;;;;;;;5037589;28;20446;-70
2022/02/27 00:10:11;;;;;;;7.97;4.20;;;;;;;;;;5037663;28;21012;-70
2022/02/27 00:12:41;;;;;;;6.53;4.33;;;;;;;;;;5037291;28;21020;-70
2022/02/27 00:15:12;;;;;;;8.30;5.20;;;;;;;;;;5037627;28;20447;-70
2022/02/27 00:17:40;;;;;;;5.67;4.50;;;;;;;;;;5037666;28;20557;-70
2022/02/27 00:20:10;;;;;;;5.47;4.30;;;;;;;;;;5037262;28;20521;-70
2022/02/27 00:22:38;;;;;;;9.90;5.20;;;;;;;;;;5037527;28;20534;-70
2022/02/27 00:25:07;;;;;;;9.00;5.57;;;;;;;;;;5031832;28;20471;-70
2022/02/27 00:27:35;;;;;;;8.97;5.07;;;;;;;;;;5017419;28;20478;-70
2022/02/27 00:30:07;;;;;;;6.50;4.90;;;;;;;;;;5018032;28;20527;-70
2022/02/27 00:32:35;;;;;;;9.83;6.27;;;;;;;;;;5017540;28;20506;-70
2022/02/27 00:35:03;;;;;;;7.33;4.80;;;;;;;;;;5017591;28;20881;-70
2022/02/27 00:37:31;;;;;;;6.70;5.03;;;;;;;;;;5021490;28;20542;-70
2022/02/27 00:39:59;;;;;;;10.87;5.40;;;;;;;;;;5017836;28;20534;-70
2022/02/27 00:42:27;;;;;;;7.33;4.93;;;;;;;;;;5031677;28;20510;-70
2022/02/27 00:44:55;;;;;;;8.83;5.03;;;;;;;;;;5029624;28;20471;-70
2022/02/27 00:47:24;;;;;;;9.90;5.53;;;;;;;;;;5017442;28;20538;-70
2022/02/27 00:49:52;;;;;;;10.20;5.10;;;;;;;;;;5017781;28;20533;-70
2022/02/27 00:52:22;;;;;;;6.43;5.23;;;;;;;;;;5017317;28;20501;-70
2022/02/27 00:54:50;;;;;;;8.93;5.53;;;;;;;;;;5022020;28;20511;-70
2022/02/27 00:57:18;;;;;;;9.77;5.83;;;;;;;;;;5034734;28;20493;-70
2022/02/27 00:59:46;;;;;;;8.30;5.93;;;;;;;;;;5032943;28;20480;-70
2022/02/27 01:02:15;;;;;;;9.90;6.07;;;;;;;;;;5041001;28;20945;-70
2022/02/27 01:04:45;;;;;;;13.33;6.60;;;;;;;;;;5041146;28;20496;-70
2022/02/27 01:07:13;;;;;;;10.50;6.17;;;;;;;;;;5040753;28;20494;-70
2022/02/27 01:09:41;;;;;;;11.03;7.07;;;;;;;;;;5041218;28;20501;-70
2022/02/27 01:12:09;;;;;;;12.57;7.47;;;;;;;;;;5040634;28;20489;-70
2022/02/27 01:14:37;;;;;;;12.93;7.03;;;;;;;;;;5037664;28;20921;-70
2022/02/27 01:17:06;;;;;;;12.47;6.47;;;;;;;;;;5040681;28;20561;-70
2022/02/27 01:19:34;;;;;;;11.17;6.50;;;;;;;;;;5040826;28;20466;-70
2022/02/27 01:22:04;;;;;;;13.87;7.23;;;;;;;;;;5040557;28;20843;-70
2022/02/27 01:24:32;;;;;;;13.43;6.27;;;;;;;;;;5040421;28;20514;-70
2022/02/27 01:27:00;;;;;;;10.23;6.33;;;;;;;;;;5040274;28;20892;-70
2022/02/27 01:29:28;;;;;;;7.43;5.80;;;;;;;;;;5040321;28;20517;-70
2022/02/27 01:31:56;;;;;;;10.57;7.63;;;;;;;;;;5040488;28;20478;-70
2022/02/27 01:34:24;;;;;;;8.73;5.93;;;;;;;;;;5040577;28;20453;-70
2022/02/27 01:36:52;;;;;;;10.50;6.33;;;;;;;;;;5038792;28;20573;-70
2022/02/27 01:39:21;;;;;;;16.53;6.60;;;;;;;;;;5040149;28;20453;-70
2022/02/27 01:41:49;;;;;;;6.23;5.63;;;;;;;;;;5040002;28;20862;-70
2022/02/27 01:44:17;;;;;;;8.40;6.03;;;;;;;;;;5040513;28;20474;-70
2022/02/27 01:46:58;;;;;;;8.63;6.10;;;;;;;;;;5040105;28;20983;-70
2022/02/27 01:49:27;;;;;;;12.93;6.70;;;;;;;;;;5040130;28;20454;-70
2022/02/27 01:52:00;;;;;;;7.20;5.17;;;;;;;;;;5040086;28;20449;-70
2022/02/27 01:54:30;;;;;;;6.83;4.90;;;;;;;;;;5040327;28;20478;-70
2022/02/27 01:56:58;;;;;;;9.90;5.80;;;;;;;;;;5039890;28;20528;-70
2022/02/27 01:59:26;;;;;;;12.13;5.27;;;;;;;;;;5040137;28;20526;-70
2022/02/27 02:01:54;;;;;;;10.27;5.70;;;;;;;;;;5040281;28;20533;-70
2022/02/27 02:04:23;;;;;;;9.37;5.80;;;;;;;;;;5040330;28;20478;-70
2022/02/27 02:06:51;;;;;;;7.10;5.20;;;;;;;;;;5039727;28;20509;-70
2022/02/27 02:09:19;;;;;;;9.43;6.43;;;;;;;;;;5040001;28;20530;-70
2022/02/27 02:11:49;;;;;;;13.90;6.07;;;;;;;;;;5039383;28;20573;-70
2022/02/27 02:14:17;;;;;;;9.57;5.67;;;;;;;;;;5040113;28;20480;-70
2022/02/27 02:16:49;;;;;;;9.00;5.90;;;;;;;;;;5039510;28;20970;-70
2022/02/27 02:19:18;;;;;;;7.40;5.93;;;;;;;;;;5039551;28;20628;-70
2022/02/27 02:21:50;;;;;;;7.40;5.80;;;;;;;;;;5039692;28;20442;-70
2022/02/27 02:24:19;;;;;;;11.53;6.43;;;;;;;;;;5039723;28;20484;-70
2022/02/27 02:26:50;;;;;;;11.67;6.47;;;;;;;;;;5026356;28;20465;-70
2022/02/27 02:29:19;;;;;;;9.00;5.57;;;;;;;;;;5039685;28;20470;-70
2022/02/27 02:31:48;;;;;;;8.20;5.83;;;;;;;;;;5039992;28;20445;-70
2022/02/27 02:34:16;;;;;;;10.37;6.00;;;;;;;;;;5040343;28;20504;-70
2022/02/27 02:36:45;;;;;;;10.30;6.23;;;;;;;;;;5031705;28;20510;-71
2022/02/27 02:39:16;;;;;;;10.93;6.70;;;;;;;;;;5019417;28;20519;-70
2022/02/27 02:41:44;;;;;;;10.27;5.83;;;;;;;;;;5019562;28;20481;-70
2022/02/27 02:44:13;;;;;;;10.37;5.73;;;;;;;;;;5019705;28;20483;-70
2022/02/27 02:46:41;;;;;;;9.80;6.17;;;;;;;;;;5019258;28;20526;-70
2022/02/27 02:49:10;;;;;;;7.40;5.50;;;;;;;;;;5019497;28;20447;-70
2022/02/27 02:51:39;;;;;;;8.70;5.90;;;;;;;;;;5019281;28;20531;-70
2022/02/27 02:54:07;;;;;;;7.60;5.80;;;;;;;;;;5019178;28;20439;-70
2022/02/27 02:56:37;;;;;;;8.07;6.10;;;;;;;;;;5019275;28;20550;-70
2022/02/27 02:59:06;;;;;;;8.67;6.00;;;;;;;;;;5024666;28;20474;-70
2022/02/27 03:01:34;;;;;;;11.37;6.93;;;;;;;;;;5039153;28;20449;-70
2022/02/27 03:04:03;;;;;;;13.23;6.10;;;;;;;;;;5039057;28;20447;-70
2022/02/27 03:06:31;;;;;;;9.90;5.87;;;;;;;;;;5038804;28;20512;-70
2022/02/27 03:08:59;;;;;;;11.27;6.43;;;;;;;;;;5038914;28;20442;-70
2022/02/27 03:11:27;;;;;;;11.80;6.13;;;;;;;;;;5038150;28;20494;-70
2022/02/27 03:14:00;;;;;;;11.37;6.40;;;;;;;;;;5038731;28;20474;-70
2022/02/27 03:16:29;;;;;;;9.80;6.17;;;;;;;;;;5038175;28;20463;-70
2022/02/27 03:18:57;;;;;;;12.70;6.83;;;;;;;;;;5038667;28;20486;-70
2022/02/27 03:21:25;;;;;;;11.93;7.13;;;;;;;;;;5038932;28;20446;-69
2022/02/27 03:23:53;;;;;;;10.53;6.70;;;;;;;;;;5038593;28;20446;-70
2022/02/27 03:26:22;;;;;;;12.13;7.60;;;;;;;;;;5022079;28;20554;-69
2022/02/27 03:28:51;;;;;;;8.67;6.07;;;;;;;;;;5018891;28;20529;-70
2022/02/27 03:31:20;;;;;;;9.33;6.23;;;;;;;;;;5025916;28;20470;-70
2022/02/27 03:33:49;;;;;;;10.17;7.13;;;;;;;;;;5029032;28;20500;-70
2022/02/27 03:36:17;;;;;;;11.73;7.00;;;;;;;;;;5031406;28;21018;-71
2022/02/27 03:38:45;;;;;;;9.50;6.70;;;;;;;;;;5028977;28;20543;-70
2022/02/27 03:41:13;;;;;;;8.53;6.50;;;;;;;;;;5031212;28;20538;-70
2022/02/27 03:43:41;;;;;;;10.23;6.50;;;;;;;;;;5029001;28;20505;-70
2022/02/27 03:46:09;;;;;;;10.90;7.03;;;;;;;;;;5031616;28;20459;-70
2022/02/27 03:48:39;;;;;;;12.67;7.40;;;;;;;;;;5033478;28;20438;-70
2022/02/27 03:51:07;;;;;;;10.87;6.87;;;;;;;;;;5036947;28;20466;-70
2022/02/27 03:53:35;;;;;;;15.63;7.80;;;;;;;;;;5032699;28;20475;-70
2022/02/27 03:56:03;;;;;;;18.40;7.77;;;;;;;;;;5031814;28;20497;-70
2022/02/27 03:58:31;;;;;;;12.03;7.77;;;;;;;;;;5031941;28;21048;-70
2022/02/27 04:00:59;;;;;;;10.50;6.93;;;;;;;;;;5035688;28;20445;-70
2022/02/27 04:03:28;;;;;;;16.30;8.57;;;;;;;;;;5034451;28;20438;-70
2022/02/27 04:05:57;;;;;;;13.90;7.87;;;;;;;;;;5032021;28;20490;-70
2022/02/27 04:08:28;;;;;;;10.93;8.17;;;;;;;;;;5031948;28;20497;-70
2022/02/27 04:10:56;;;;;;;13.43;8.30;;;;;;;;;;5034294;28;20530;-70
2022/02/27 04:13:24;;;;;;;13.30;8.00;;;;;;;;;;5034593;28;20474;-70
2022/02/27 04:15:52;;;;;;;12.53;8.47;;;;;;;;;;5031610;28;20455;-70
2022/02/27 04:18:22;;;;;;;14.83;7.70;;;;;;;;;;5033501;28;20488;-70
2022/02/27 04:20:50;;;;;;;11.93;8.47;;;;;;;;;;5032124;28;20522;-70
2022/02/27 04:23:20;;;;;;;12.60;8.30;;;;;;;;;;5033985;28;20877;-70
2022/02/27 04:25:48;;;;;;;10.83;7.70;;;;;;;;;;5028874;28;20497;-70
2022/02/27 04:28:16;;;;;;;7.83;7.03;;;;;;;;;;5030694;28;20526;-70
2022/02/27 04:30:44;;;;;;;12.50;7.70;;;;;;;;;;5028019;28;20882;-70
2022/02/27 04:33:12;;;;;;;16.10;8.30;;;;;;;;;;5031029;28;20442;-70
2022/02/27 04:35:40;;;;;;;13.30;8.67;;;;;;;;;;5030604;28;21001;-70
2022/02/27 04:38:08;;;;;;;15.17;8.93;;;;;;;;;;5030291;28;20470;-70
2022/02/27 04:40:38;;;;;;;10.80;8.23;;;;;;;;;;5029151;28;20569;-70
2022/02/27 04:43:06;;;;;;;10.37;7.40;;;;;;;;;;5023739;28;20482;-70
2022/02/27 04:45:34;;;;;;;11.60;7.63;;;;;;;;;;5037180;28;20558;-70
2022/02/27 04:48:02;;;;;;;14.03;8.20;;;;;;;;;;5037943;28;20533;-70
2022/02/27 04:50:32;;;;;;;12.37;8.30;;;;;;;;;;5038017;28;20438;-70
2022/02/27 04:53:00;;;;;;;13.40;7.60;;;;;;;;;;5037155;28;20481;-70
2022/02/27 04:55:28;;;;;;;12.93;7.97;;;;;;;;;;5037050;28;20463;-70
2022/02/27 04:57:58;;;;;;;12.47;7.73;;;;;;;;;;5036557;28;20481;-70
2022/02/27 05:00:26;;;;;;;15.70;8.27;;;;;;;;;;5037209;28;20513;-70
2022/02/27 05:02:54;;;;;;;14.70;9.10;;;;;;;;;;5037414;28;20454;-70
2022/02/27 05:05:22;;;;;;;10.93;7.77;;;;;;;;;;5037014;28;20546;-70
2022/02/27 05:07:50;;;;;;;9.23;8.00;;;;;;;;;;5036889;28;20537;-70
2022/02/27 05:10:18;;;;;;;11.60;9.23;;;;;;;;;;5037082;28;20470;-70
2022/02/27 05:12:46;;;;;;;13.50;7.87;;;;;;;;;;5037129;28;20574;-70
2022/02/27 05:15:15;;;;;;;11.20;8.07;;;;;;;;;;5037043;28;20549;-70
2022/02/27 05:17:43;;;;;;;11.27;7.97;;;;;;;;;;5037061;28;20972;-70
2022/02/27 05:20:12;;;;;;;12.07;7.63;;;;;;;;;;5037000;28;20506;-70
2022/02/27 05:22:43;;;;;;;11.70;8.23;;;;;;;;;;5036705;28;20821;-70
2022/02/27 05:25:12;;;;;;;12.07;8.53;;;;;;;;;;5030262;28;20452;-70
2022/02/27 05:27:40;;;;;;;12.53;7.43;;;;;;;;;;5016947;28;20474;-70
2022/02/27 05:30:08;;;;;;;12.30;7.17;;;;;;;;;;5017265;28;20462;-70
2022/02/27 05:32:37;;;;;;;12.90;8.57;;;;;;;;;;5017359;28;20483;-70
2022/02/27 05:35:06;;;;;;;14.87;8.17;;;;;;;;;;5017299;28;20447;-70
2022/02/27 05:37:34;;;;;;;10.23;7.70;;;;;;;;;;5020637;28;21035;-70
2022/02/27 05:40:04;;;;;;;15.77;9.50;;;;;;;;;;5019542;28;20566;-70
2022/02/27 05:42:32;;;;;;;11.03;7.83;;;;;;;;;;5020216;28;20450;-70
2022/02/27 05:45:00;;;;;;;10.70;7.57;;;;;;;;;;5020771;28;20490;-71
2022/02/27 05:47:28;;;;;;;16.10;9.00;;;;;;;;;;5020460;28;20454;-70
2022/02/27 05:49:58;;;;;;;11.30;7.50;;;;;;;;;;5020713;28;20479;-65
2022/02/27 05:52:26;;;;;;;10.77;7.97;;;;;;;;;;5020512;28;20438;-65
2022/02/27 05:54:54;;;;;;;10.27;8.20;;;;;;;;;;5020366;28;20479;-65
2022/02/27 05:57:22;;;;;;;14.97;7.47;;;;;;;;;;5019807;28;20938;-63
2022/02/27 05:59:50;;;;;;;13.57;8.43;;;;;;;;;;5032156;28;20518;-64
2022/02/27 06:02:18;;;;;;;9.73;7.20;;;;;;;;;;5039989;28;20806;-64
2022/02/27 06:04:48;;;;;;;13.97;8.13;;;;;;;;;;5039889;28;20507;-64
2022/02/27 06:07:17;;;;;;;11.13;7.73;;;;;;;;;;5039906;28;20549;-64
2022/02/27 06:09:45;;;;;;;11.93;7.83;;;;;;;;;;5030450;28;20534;-64
2022/02/27 06:12:14;;;;;;;11.30;7.27;;;;;;;;;;5018520;28;20495;-64
2022/02/27 06:14:44;;;;;;;8.93;7.10;;;;;;;;;;5011628;28;20527;-64
2022/02/27 06:17:12;;;;;;;10.23;6.97;;;;;;;;;;5015087;28;20452;-64
2022/02/27 06:19:40;;;;;;;8.97;7.53;;;;;;;;;;5011053;28;20547;-64
2022/02/27 06:22:08;;;;;;;10.10;7.73;;;;;;;;;;5011507;28;20471;-64
2022/02/27 06:24:38;;;;;;;10.97;7.60;;;;;;;;;;5010021;28;20507;-64
2022/02/27 06:27:06;;;;;;;13.33;7.50;;;;;;;;;;5011589;28;20466;-64
2022/02/27 06:29:35;;;;;;;12.53;7.67;;;;;;;;;;5012901;28;20440;-64
2022/02/27 06:32:07;;;;;;;12.50;7.63;;;;;;;;;;5010687;28;20446;-64
2022/02/27 06:34:35;;;;;;;15.37;8.57;;;;;;;;;;5008685;28;20475;-63
2022/02/27 06:37:04;;;;;;;9.73;7.20;;;;;;;;;;5012898;28;20555;-64
2022/02/27 06:39:32;;;;;;;15.37;8.33;;;;;;;;;;5011548;28;20475;-63
2022/02/27 06:42:02;;;;;;;13.03;7.60;;;;;;;;;;5011053;28;20472;-64
2022/02/27 06:44:30;;;;;;;14.60;7.23;;;;;;;;;;5011500;28;20919;-64
2022/02/27 06:46:58;;;;;;;18.53;8.73;;;;;;;;;;5010300;28;20464;-64
2022/02/27 06:49:26;;;;;;;14.93;7.20;;;;;;;;;;4999880;28;20531;-64
2022/02/27 06:51:54;;;;;;;12.47;7.90;;;;;;;;;;4999213;28;20483;-64
2022/02/27 06:54:23;;;;;;;10.13;6.80;;;;;;;;;;4999498;28;20963;-64
2022/02/27 06:56:52;;;;;;;11.40;7.07;;;;;;;;;;4999392;28;20835;-64
2022/02/27 06:59:22;;;;;;;9.87;6.70;;;;;;;;;;5007413;28;20490;-64
2022/02/27 07:01:50;;;;;;;8.63;6.63;;;;;;;;;;5019228;28;20574;-64
2022/02/27 07:04:18;;;;;;;8.47;6.77;;;;;;;;;;5015846;28;20440;-74
2022/02/27 07:06:46;;;;;;;11.40;7.00;;;;;;;;;;4999706;28;20510;-75
2022/02/27 07:09:15;;;;;;;9.77;7.63;;;;;;;;;;4999755;28;20479;-73
2022/02/27 07:11:47;;;;;;;12.80;7.33;;;;;;;;;;5024447;28;20470;-74
2022/02/27 07:14:15;;;;;;;12.83;7.30;;;;;;;;;;5036189;28;20477;-74
2022/02/27 07:16:44;;;;;;;9.63;6.53;;;;;;;;;;5034760;28;20553;-75
2022/02/27 07:19:12;;;;;;;10.43;6.17;;;;;;;;;;5037230;28;20454;-74
2022/02/27 07:21:40;;;;;;;10.40;6.50;;;;;;;;;;5035110;28;20553;-75
2022/02/27 07:24:09;;;;;;;8.53;6.13;;;;;;;;;;5035673;28;20445;-75
2022/02/27 07:26:37;;;;;;;10.43;6.17;;;;;;;;;;5036619;28;20462;-74
2022/02/27 07:29:05;;;;;;;9.43;6.37;;;;;;;;;;5034528;28;20485;-74
2022/02/27 07:31:33;;;;;;;8.00;6.10;;;;;;;;;;5036096;28;20473;-74
2022/02/27 07:34:02;;;;;;;10.73;6.20;;;;;;;;;;5035882;28;20446;-75
2022/02/27 07:36:30;;;;;;;12.03;7.50;;;;;;;;;;5034803;28;20502;-75
2022/02/27 07:38:58;;;;;;;11.53;6.73;;;;;;;;;;5034446;28;21020;-74
2022/02/27 07:41:26;;;;;;;9.00;7.60;;;;;;;;;;5033098;28;20510;-75
2022/02/27 07:43:57;;;;;;;12.00;7.07;;;;;;;;;;5032315;28;20463;-73
2022/02/27 07:46:25;;;;;;;14.10;7.83;;;;;;;;;;5031106;28;20472;-73
2022/02/27 07:48:53;;;;;;;12.77;7.00;;;;;;;;;;5034341;28;20442;-73
2022/02/27 07:51:26;;;;;;;11.13;6.83;;;;;;;;;;5033219;28;20443;-73
2022/02/27 07:53:54;;;;;;;9.97;6.33;;;;;;;;;;5032624;28;20916;-73
2022/02/27 07:56:22;;;;;;;9.87;6.37;;;;;;;;;;5034637;28;20466;-73
2022/02/27 07:58:51;;;;;;;8.63;5.70;;;;;;;;;;5036537;28;20525;-73
2022/02/27 08:01:20;;;;;;;8.70;6.13;;;;;;;;;;5033141;28;20569;-74
2022/02/27 08:03:48;;;;;;;11.43;6.23;;;;;;;;;;5035593;28;20440;-74
2022/02/27 08:06:16;;;;;;;7.47;5.83;;;;;;;;;;5021437;28;20468;-74
2022/02/27 08:08:46;;;;;;;10.50;6.87;;;;;;;;;;5017435;28;20497;-74
2022/02/27 08:11:14;;;;;;;10.83;5.87;;;;;;;;;;5017564;28;20499;-75
2022/02/27 08:13:42;;;;;;;5.80;5.03;;;;;;;;;;5017946;28;20475;-74
2022/02/27 08:16:10;;;;;;;10.10;6.20;;;;;;;;;;5021948;28;20553;-75
2022/02/27 08:18:38;;;;;;;9.27;6.57;;;;;;;;;;5037430;28;20581;-74
2022/02/27 08:21:06;;;;;;;7.60;5.50;;;;;;;;;;5037647;28;20565;-74
2022/02/27 08:23:34;;;;;;;8.70;5.23;;;;;;;;;;5037248;28;20969;-74
2022/02/27 08:26:04;;;;;;;7.90;5.93;;;;;;;;;;5037061;28;20494;-75
2022/02/27 08:28:32;;;;;;;8.67;5.73;;;;;;;;;;5037393;28;20529;-74
2022/02/27 08:31:01;;;;;;;7.30;5.60;;;;;;;;;;5037029;28;20514;-74
2022/02/27 08:33:29;;;;;;;8.27;5.40;;;;;;;;;;5037280;28;20442;-74
2022/02/27 08:35:57;;;;;;;6.93;5.67;;;;;;;;;;5034570;28;20512;-73
2022/02/27 08:38:26;;;;;;;9.20;5.70;;;;;;;;;;5026801;28;20517;-72
2022/02/27 08:40:56;;;;;;;6.23;4.67;;;;;;;;;;5035513;28;20552;-72
2022/02/27 08:43:25;;;;;;;5.40;3.93;;;;;;;;;;5035377;28;20468;-71
2022/02/27 08:45:53;;;;;;;6.40;4.83;;;;;;;;;;5033294;28;20520;-72
2022/02/27 08:48:23;;;;;;;8.00;5.20;;;;;;;;;;5034635;28;20534;-72
2022/02/27 08:50:51;;;;;;;7.97;4.90;;;;;;;;;;5034257;28;20454;-72
2022/02/27 08:53:19;;;;;;;6.70;4.13;;;;;;;;;;5033809;28;20522;-72
2022/02/27 08:55:47;;;;;;;6.83;4.83;;;;;;;;;;5033439;28;20517;-72
2022/02/27 08:58:15;;;;;;;7.93;4.33;;;;;;;;;;5035031;28;20517;-73
2022/02/27 09:00:45;;;;;;;7.07;4.20;;;;;;;;;;5036513;28;20442;-71
2022/02/27 09:03:15;;;;;;;6.97;4.27;;;;;;;;;;5036733;28;20471;-70
2022/02/27 09:05:45;;;;;;;8.07;4.33;;;;;;;;;;5035468;28;20462;-72
2022/02/27 09:08:13;;;;;;;8.47;5.33;;;;;;;;;;5032287;28;20814;-71
2022/02/27 09:10:41;;;;;;;7.83;4.70;;;;;;;;;;5035692;28;20529;-71
2022/02/27 09:13:09;;;;;;;8.50;5.17;;;;;;;;;;5031962;28;20874;-71
2022/02/27 09:15:37;;;;;;;10.80;5.90;;;;;;;;;;5038781;28;20541;-71
2022/02/27 09:18:12;;;;;;;7.40;5.17;;;;;;;;;;5037836;28;20439;-71
2022/02/27 09:20:40;;;;;;;6.90;5.13;;;;;;;;;;5037021;28;20529;-72
2022/02/27 09:23:08;;;;;;;5.03;4.00;;;;;;;;;;5038494;28;20578;-72
2022/02/27 09:25:36;;;;;;;8.83;4.37;;;;;;;;;;5033712;28;20892;-72
2022/02/27 09:28:24;;;;;;;8.57;5.00;;;;;;;;;;5035883;28;20441;-71
2022/02/27 09:30:52;;;;;;;8.03;4.10;;;;;;;;;;5037048;28;20470;-73
2022/02/27 09:33:21;;;;;;;7.23;4.00;;;;;;;;;;5037914;28;20780;-73
2022/02/27 09:35:50;;;;;;;7.37;4.37;;;;;;;;;;5035514;28;20561;-72
2022/02/27 09:38:18;;;;;;;5.83;4.47;;;;;;;;;;5027405;28;20486;-73
2022/02/27 09:40:48;;;;;;;7.90;4.97;;;;;;;;;;5027142;28;21011;-74
2022/02/27 09:43:17;;;;;;;5.97;4.73;;;;;;;;;;5040128;28;20492;-73
2022/02/27 09:45:46;;;;;;;7.73;4.43;;;;;;;;;;5040401;28;20878;-73
2022/02/27 09:48:15;;;;;;;6.73;4.20;;;;;;;;;;5040537;28;20450;-72
2022/02/27 09:50:45;;;;;;;8.07;4.53;;;;;;;;;;5039941;28;21019;-72
2022/02/27 09:53:13;;;;;;;4.37;3.83;;;;;;;;;;5039642;28;20509;-73
2022/02/27 09:55:41;;;;;;;6.43;4.30;;;;;;;;;;5039699;28;20786;-73
2022/02/27 09:58:09;;;;;;;6.23;4.60;;;;;;;;;;5039773;28;20518;-72
2022/02/27 10:00:37;;;;;;;7.63;4.03;;;;;;;;;;5038307;28;20945;-72
2022/02/27 10:03:10;;;;;;;5.37;4.13;;;;;;;;;;5036250;28;20517;-72
2022/02/27 10:05:39;;;;;;;6.27;4.40;;;;;;;;;;5035459;28;20279;-73
2022/02/27 10:08:09;;;;;;;7.17;4.27;;;;;;;;;;5036880;28;20299;-73
2022/02/27 10:10:37;;;;;;;7.50;4.83;;;;;;;;;;5038892;28;20266;-73
2022/02/27 10:13:06;;;;;;;5.53;4.57;;;;;;;;;;5037257;28;20260;-73
2022/02/27 10:15:35;;;;;;;7.20;3.90;;;;;;;;;;5037562;28;20486;-73
2022/02/27 10:18:13;;;;;;;7.07;4.57;;;;;;;;;;5036475;28;20438;-73
2022/02/27 10:20:41;;;;;;;6.87;4.00;;;;;;;;;;5035895;28;20476;-73
2022/02/27 10:23:11;;;;;;;7.53;4.37;;;;;;;;;;5030141;28;20483;-73
2022/02/27 10:25:40;;;;;;;9.73;4.40;;;;;;;;;;5033170;28;20466;-73
2022/02/27 10:28:08;;;;;;;7.00;3.83;;;;;;;;;;5039637;28;20533;-73
2022/02/27 10:30:37;;;;;;;5.57;4.10;;;;;;;;;;5039619;28;20474;-72
2022/02/27 10:33:07;;;;;;;4.53;3.83;;;;;;;;;;5039597;28;20447;-73
2022/02/27 10:35:40;;;;;;;5.03;3.80;;;;;;;;;;5039199;28;20590;-72
2022/02/27 10:38:09;;;;;;;7.27;3.73;;;;;;;;;;5028997;28;20478;-73
2022/02/27 10:40:39;;;;;;;5.60;3.40;;;;;;;;;;5019435;28;20487;-73
2022/02/27 10:43:08;;;;;;;8.07;4.50;;;;;;;;;;5019283;28;20933;-72
2022/02/27 10:45:36;;;;;;;7.13;4.30;;;;;;;;;;5019487;28;20491;-73
2022/02/27 10:48:05;;;;;;;4.10;3.40;;;;;;;;;;5019547;28;20454;-73
2022/02/27 10:50:34;;;;;;;7.03;4.33;;;;;;;;;;5019301;28;20531;-73
2022/02/27 10:53:02;;;;;;;6.63;3.67;;;;;;;;;;5019029;28;20287;-74
2022/02/27 10:55:32;;;;;;;5.37;3.47;;;;;;;;;;5036708;28;20254;-74
2022/02/27 10:58:03;;;;;;;4.93;3.23;;;;;;;;;;5038887;28;20234;-72
2022/02/27 11:00:31;;;;;;;5.73;3.47;;;;;;;;;;5038752;28;20683;-74
2022/02/27 11:03:01;;;;;;;4.83;3.63;;;;;;;;;;5037926;28;20223;-71
2022/02/27 11:05:31;;;;;;;6.90;4.10;;;;;;;;;;5033398;28;20505;-71
2022/02/27 11:07:59;;;;;;;5.40;3.53;;;;;;;;;;5038470;28;20965;-72
2022/02/27 11:10:28;;;;;;;5.17;3.50;;;;;;;;;;5037959;28;20874;-71
2022/02/27 11:12:58;;;;;;;10.60;3.70;;;;;;;;;;5038448;28;20930;-73
2022/02/27 11:15:28;;;;;;;8.17;4.10;;;;;;;;;;5038705;28;20524;-71
2022/02/27 11:17:57;;;;;;;4.90;4.13;;;;;;;;;;5038366;28;20609;-72
2022/02/27 11:20:25;;;;;;;8.97;3.60;;;;;;;;;;5034751;28;20748;-71
2022/02/27 11:22:54;;;;;;;4.43;3.50;;;;;;;;;;5035594;28;20318;-71
2022/02/27 11:25:23;;;;;;;4.37;3.97;;;;;;;;;;5030705;28;20949;-72
2022/02/27 11:27:52;;;;;;;6.17;4.10;;;;;;;;;;5038754;28;20291;-74
2022/02/27 11:30:21;;;;;;;6.30;4.50;;;;;;;;;;5038371;28;20286;-72
2022/02/27 11:32:54;;;;;;;4.07;3.73;;;;;;;;;;5038501;28;20231;-73
2022/02/27 11:35:37;;;;;;;6.10;3.73;;;;;;;;;;5037905;28;20234;-73
2022/02/27 11:38:05;;;;;;;4.37;3.77;;;;;;;;;;5021053;28;20295;-74
2022/02/27 11:40:41;;;;;;;6.47;3.93;;;;;;;;;;5018176;28;20266;-73
2022/02/27 11:43:09;;;;;;;6.90;3.83;;;;;;;;;;5018458;28;20667;-74
2022/02/27 11:45:59;;;;;;;6.27;3.90;;;;;;;;;;5018458;28;20314;-73
2022/02/27 11:48:45;;;;;;;5.27;3.30;;;;;;;;;;5025235;28;20339;-74
2022/02/27 11:51:36;;;;;;;9.60;3.90;;;;;;;;;;5037853;28;21650;-73
2022/02/27 11:54:05;;;;;;;4.80;4.23;;;;;;;;;;5037444;28;20831;-74
2022/02/27 11:56:33;;;;;;;5.67;3.77;;;;;;;;;;5037491;28;20635;-74
2022/02/27 11:59:01;;;;;;;7.10;3.80;;;;;;;;;;5037801;28;20291;-74
2022/02/27 12:01:36;;;;;;;9.97;4.17;;;;;;;;;;5037426;28;20286;-64
2022/02/27 12:04:23;;;;;;;5.73;4.67;;;;;;;;;;5029853;28;20227;-71
2022/02/27 12:06:59;;;;;;;4.93;3.50;;;;;;;;;;5017368;28;20270;-70
2022/02/27 12:09:27;;;;;;;8.80;4.33;;;;;;;;;;5017367;28;20239;-71
2022/02/27 12:11:55;;;;;;;10.43;6.20;;;;;;;;;;5013226;28;20270;-71
2022/02/27 12:14:23;;;;;;;8.87;3.80;;;;;;;;;;5019583;28;20227;-72
2022/02/27 12:16:51;;;;;;;5.57;3.97;;;;;;;;;;5037018;28;20228;-72
2022/02/27 12:19:23;;;;;;;6.50;4.30;;;;;;;;;;5037287;28;20243;-72
2022/02/27 12:21:52;;;;;;;8.87;4.17;;;;;;;;;;5024658;28;20238;-72
2022/02/27 12:24:28;;;;;;;3.80;3.30;;;;;;;;;;5037130;28;20262;-72
2022/02/27 12:26:56;;;;;;;8.03;3.43;;;;;;;;;;5026002;28;20286;-72
2022/02/27 12:29:38;;;;;;;4.77;3.83;;;;;;;;;;5037555;28;20207;-72
2022/02/27 12:32:24;;;;;;;4.77;3.87;;;;;;;;;;5037097;28;20242;-72
2022/02/27 12:34:53;;;;;;;7.40;3.57;;;;;;;;;;5037222;28;20235;-72
2022/02/27 12:37:21;;;;;;;4.30;3.87;;;;;;;;;;5022638;28;20621;-72
2022/02/27 12:39:51;;;;;;;7.73;3.80;;;;;;;;;;5017109;28;20291;-72
2022/02/27 12:42:20;;;;;;;6.13;3.60;;;;;;;;;;5017061;28;20291;-71
2022/02/27 12:44:49;;;;;;;7.57;4.37;;;;;;;;;;5034549;28;20662;-71
2022/02/27 12:47:18;;;;;;;7.60;4.10;;;;;;;;;;5036813;28;20266;-73
2022/02/27 12:52:37;;;;;;;7.13;3.50;;;;;;;;;;5040947;28;20338;-72
2022/02/27 12:55:10;;;;;;;6.93;3.23;;;;;;;;;;5041069;28;20720;-73
2022/02/27 12:57:42;;;;;;;5.90;3.70;;;;;;;;;;5041268;28;20221;-73
2022/02/27 13:00:10;;;;;;;5.20;3.67;;;;;;;;;;5041193;28;20243;-73
2022/02/27 13:02:38;;;;;;;4.53;3.27;;;;;;;;;;5040690;28;20710;-74
2022/02/27 13:05:12;;;;;;;5.23;4.17;;;;;;;;;;5040859;28;20223;-72
2022/02/27 13:07:41;;;;;;;6.73;3.70;;;;;;;;;;5033676;28;20215;-74
2022/02/27 13:10:16;;;;;;;5.03;3.33;;;;;;;;;;5031655;28;20204;-75
2022/02/27 13:12:44;;;;;;;8.33;3.07;;;;;;;;;;5031305;28;20249;-74
2022/02/27 13:15:12;;;;;;;4.97;3.00;;;;;;;;;;5030084;28;20230;-73
2022/02/27 13:17:40;;;;;;;7.00;3.13;;;;;;;;;;5032307;28;20204;-74
2022/02/27 13:20:09;;;;;;;4.60;3.00;;;;;;;;;;5038763;28;20290;-72
2022/02/27 13:22:38;;;;;;;6.00;3.20;;;;;;;;;;5032388;28;20204;-72
2022/02/27 13:25:10;;;;;;;5.47;3.53;;;;;;;;;;5027973;28;20254;-72
2022/02/27 13:27:41;;;;;;;7.60;4.40;;;;;;;;;;5040675;28;20203;-70
2022/02/27 13:30:10;;;;;;;5.27;3.50;;;;;;;;;;5028054;28;20203;-69
2022/02/27 13:32:39;;;;;;;6.50;3.87;;;;;;;;;;5036274;28;20227;-70
2022/02/27 13:35:08;;;;;;;15.07;4.53;;;;;;;;;;5036499;28;20587;-70
2022/02/27 13:37:39;;;;;;;7.50;3.33;;;;;;;;;;5025663;28;20283;-69
2022/02/27 13:40:08;;;;;;;4.40;3.10;;;;;;;;;;5028788;28;20209;-70
2022/02/27 13:42:53;;;;;;;5.17;3.27;;;;;;;;;;5023575;28;20544;-69
2022/02/27 13:45:33;;;;;;;4.90;2.97;;;;;;;;;;5022916;28;20239;-68
2022/02/27 13:48:03;;;;;;;5.43;2.87;;;;;;;;;;5037217;28;20208;-68
2022/02/27 13:50:40;;;;;;;7.53;3.30;;;;;;;;;;5035413;28;20203;-68
2022/02/27 13:53:17;;;;;;;5.87;3.10;;;;;;;;;;5021437;28;20238;-67
2022/02/27 13:55:52;;;;;;;5.23;3.03;;;;;;;;;;5019838;28;20219;-68
2022/02/27 13:58:28;;;;;;;4.40;3.23;;;;;;;;;;5028760;28;20234;-68
2022/02/27 14:00:59;;;;;;;7.63;2.90;;;;;;;;;;5035290;28;20203;-68
2022/02/27 14:03:32;;;;;;;6.87;3.07;;;;;;;;;;5034190;28;20200;-68
2022/02/27 14:06:01;;;;;;;5.03;3.00;;;;;;;;;;5036480;28;20224;-68
2022/02/27 14:08:30;;;;;;;4.27;2.77;;;;;;;;;;5037933;28;20230;-68
2022/02/27 14:11:05;;;;;;;4.83;2.73;;;;;;;;;;5037333;28;20598;-68
2022/02/27 14:13:35;;;;;;;5.63;3.10;;;;;;;;;;5036984;28;20282;-67
2022/02/27 14:16:04;;;;;;;5.17;2.70;;;;;;;;;;5038667;28;20216;-67
2022/02/27 14:18:35;;;;;;;5.23;2.77;;;;;;;;;;5036815;28;20223;-67
2022/02/27 14:21:18;;;;;;;4.13;2.77;;;;;;;;;;5037176;28;20574;-70
2022/02/27 14:23:52;;;;;;;5.70;2.93;;;;;;;;;;5020929;28;20750;-68
2022/02/27 14:26:20;;;;;;;4.23;2.77;;;;;;;;;;5038603;28;20668;-68
2022/02/27 14:28:51;;;;;;;7.10;3.27;;;;;;;;;;5039125;28;20290;-68
2022/02/27 14:31:19;;;;;;;6.20;3.67;;;;;;;;;;5036414;28;20250;-68
2022/02/27 14:33:47;;;;;;;4.40;2.97;;;;;;;;;;5033546;28;20283;-68
2022/02/27 14:36:15;;;;;;;4.77;3.00;;;;;;;;;;5037626;28;20273;-68
2022/02/27 14:38:43;;;;;;;4.60;2.97;;;;;;;;;;5034123;28;20303;-68
2022/02/27 14:41:11;;;;;;;5.40;2.93;;;;;;;;;;5038559;28;20231;-69
2022/02/27 14:43:40;;;;;;;5.83;3.10;;;;;;;;;;5033679;28;20319;-68
2022/02/27 14:46:10;;;;;;;5.00;2.40;;;;;;;;;;5037748;28;20243;-68
2022/02/27 14:48:40;;;;;;;7.07;3.40;;;;;;;;;;5037848;28;20249;-68
2022/02/27 14:51:09;;;;;;;6.17;3.43;;;;;;;;;;5038690;28;20200;-68
2022/02/27 14:53:38;;;;;;;5.70;2.83;;;;;;;;;;5036266;28;20231;-68